Gilead, Illinois
Current Conditions -  °F | °C
As of 8:54 AM on Sunday 23 Nov 2014 (Local Time) from KSET Reporting Station
Light Rain Light Rain  
Wind Chill: 51°   Ceiling: 8000
Heat Index: 51°   Visibility: 5mi
Dew Point: 49°   Wind: 10mph
Humidity: 92%   Direction: 100°E
Pressure: 29.66"   Gusts: NA
Location:  39.0922°N, 90.6653°W
Report Text: KSET 231454Z AUTO 10009KT 5SM -RA BR SCT017 BKN080 OVC090 11/09 A2966 RMK AO2 RAB46 SLP044 P0001 60001 T01060094 58025
Loading
Personal Weather Stations






























Interactive Weather Map New forecast layout! Learn more

10-Day Weather Forecast

Advertisements
Track Severe Weather on mobile